Teyateyaneng, Lesotho
Current Conditions -  °F | °C
As of 2:00 AM on Wednesday 22 Oct 2014 (Local Time) from FABL Reporting Station
NA  
Wind Chill: 61°   Ceiling: NA
Heat Index: 61°   Visibility: NA
Dew Point: 46°   Wind: 12mph
Humidity: 59%   Direction: 30°NNE
Pressure: 30.18"   Gusts: NA
Location:  29.15°S, 27.74°E
Report Text: FABL 220000Z AUTO 03010KT //// // ////// 16/08 Q1022
Loading
Personal Weather Stations






























Interactive Weather Map
Tropical Storm Tracking
New forecast layout! Learn more

10-Day Weather Forecast

Advertisements
Track Severe Weather on mobile